Time;durP1;ratioP1;P1;durP2;ratioP2;P2;SDS_P1;SDS_P2;PMS_P1;PMS_P2;Temp;Humidity;BMP_temperature;BMP_pressure;BME280_temperature;BME280_humidity;BME280_pressure;Samples;Min_cycle;Max_cycle;Signal;HPM_P1;HPM_P2
2022/05/01 00:00:09;;;;;;;16.65;8.00;;;5.40;99.90;;;;;;4219983;28;20527;-90
2022/05/01 00:02:10;;;;;;;16.70;8.50;;;5.30;99.90;;;;;;4221335;28;20047;-89
2022/05/01 00:04:10;;;;;;;14.73;8.18;;;5.60;99.90;;;;;;4220785;28;20044;-90
2022/05/01 00:06:13;;;;;;;16.08;7.95;;;6.20;99.90;;;;;;4237357;28;20043;-90
2022/05/01 00:08:15;;;;;;;15.27;8.85;;;5.20;99.90;;;;;;4236638;28;20043;-89
2022/05/01 00:10:17;;;;;;;15.77;8.82;;;5.60;99.90;;;;;;4203237;28;20067;-90
2022/05/01 00:12:19;;;;;;;14.63;8.48;;;5.20;99.90;;;;;;4221303;28;20557;-89
2022/05/01 00:14:19;;;;;;;16.33;9.65;;;5.20;99.90;;;;;;4220849;28;20044;-89
2022/05/01 00:16:21;;;;;;;17.60;8.18;;;5.20;99.90;;;;;;4220134;28;20046;-90
2022/05/01 00:18:22;;;;;;;16.95;9.10;;;6.00;99.90;;;;;;4201970;28;20055;-89
2022/05/01 00:20:24;;;;;;;18.13;8.40;;;5.00;99.90;;;;;;4219935;28;20059;-91
2022/05/01 00:22:25;;;;;;;16.52;8.52;;;4.90;99.90;;;;;;4203109;28;20177;-89
2022/05/01 00:24:27;;;;;;;17.38;8.57;;;4.90;99.90;;;;;;4203478;28;20056;-89
2022/05/01 00:26:29;;;;;;;18.33;8.95;;;5.70;99.90;;;;;;4236219;28;20534;-89
2022/05/01 00:28:37;;;;;;;15.93;8.98;;;6.10;99.90;;;;;;4220432;28;20506;-89
2022/05/01 00:30:40;;;;;;;14.52;8.48;;;6.00;99.90;;;;;;4221192;28;20079;-87
2022/05/01 00:37:20;;;;;;;16.05;8.45;;;4.80;99.90;;;;;;4219536;28;20048;-88
2022/05/01 00:39:21;;;;;;;16.60;8.32;;;4.80;99.90;;;;;;4218121;28;20048;-89
2022/05/01 00:41:26;;;;;;;16.10;8.10;;;4.80;99.90;;;;;;4220129;28;20056;-90
2022/05/01 00:43:27;;;;;;;16.50;8.38;;;4.80;99.90;;;;;;4234880;28;20101;-90
2022/05/01 00:45:29;;;;;;;16.85;8.93;;;5.60;99.90;;;;;;4253063;27;20130;-90
2022/05/01 00:47:30;;;;;;;12.68;8.00;;;5.50;99.90;;;;;;4237884;28;20039;-89
2022/05/01 00:49:31;;;;;;;12.82;7.43;;;4.70;99.90;;;;;;4218500;28;20083;-89
2022/05/01 00:51:35;;;;;;;17.67;9.48;;;4.60;99.90;;;;;;4252992;27;20043;-90
2022/05/01 00:53:36;;;;;;;14.20;7.90;;;5.50;99.90;;;;;;4235620;28;20407;-90
2022/05/01 00:55:38;;;;;;;15.25;7.72;;;6.00;99.90;;;;;;4234440;28;20062;-89
2022/05/01 00:57:40;;;;;;;16.67;8.10;;;5.10;99.90;;;;;;4234467;28;20047;-89
2022/05/01 00:59:44;;;;;;;14.60;8.25;;;4.50;99.90;;;;;;4252277;27;20590;-91
2022/05/01 01:01:47;;;;;;;17.10;7.82;;;4.40;99.90;;;;;;4234711;28;20431;-90
2022/05/01 01:03:51;;;;;;;15.02;8.23;;;4.30;99.90;;;;;;4233845;28;20517;-90
2022/05/01 01:05:52;;;;;;;13.48;7.82;;;5.00;99.90;;;;;;4218628;28;20420;-90
2022/05/01 01:07:53;;;;;;;15.10;8.65;;;4.30;99.90;;;;;;4216474;28;20086;-90
2022/05/01 01:09:55;;;;;;;13.73;7.95;;;5.50;99.90;;;;;;4235255;28;20048;-90
2022/05/01 01:14:24;;;;;;;14.65;8.63;;;4.20;99.90;;;;;;4233767;28;20048;-89
2022/05/01 01:16:26;;;;;;;15.00;8.05;;;5.20;99.90;;;;;;4249512;27;20039;-89
2022/05/01 01:18:27;;;;;;;16.33;7.85;;;4.30;99.90;;;;;;4216383;28;20048;-89
2022/05/01 01:20:29;;;;;;;13.80;8.05;;;4.90;99.90;;;;;;4234316;28;20100;-90
2022/05/01 01:22:29;;;;;;;13.27;7.82;;;4.40;99.90;;;;;;4235171;28;20085;-89
2022/05/01 01:24:31;;;;;;;17.02;8.80;;;5.30;99.90;;;;;;4235446;28;20043;-89
2022/05/01 01:26:34;;;;;;;12.40;7.13;;;5.20;99.90;;;;;;4252951;27;20059;-90
2022/05/01 01:28:36;;;;;;;13.23;7.47;;;4.90;99.90;;;;;;4257657;27;20051;-89
2022/05/01 01:33:02;;;;;;;13.32;7.63;;;5.10;99.90;;;;;;4240473;28;20134;-90
2022/05/01 01:35:05;;;;;;;12.32;6.90;;;3.90;99.90;;;;;;4258497;27;20553;-90
2022/05/01 01:37:07;;;;;;;13.02;8.00;;;4.00;99.90;;;;;;4243382;28;20093;-90
2022/05/01 01:39:08;;;;;;;10.50;6.72;;;4.30;99.90;;;;;;4226003;28;20097;-89
2022/05/01 01:41:11;;;;;;;12.57;7.00;;;4.10;99.90;;;;;;4240136;28;20051;-89
2022/05/01 01:43:13;;;;;;;14.43;7.80;;;4.00;99.90;;;;;;4236788;28;20116;-89
2022/05/01 01:45:14;;;;;;;13.40;7.50;;;4.10;99.90;;;;;;4219869;28;20047;-89
2022/05/01 01:47:18;;;;;;;14.32;7.18;;;5.00;99.90;;;;;;4198630;28;20447;-91
2022/05/01 01:49:19;;;;;;;11.10;6.88;;;4.70;99.90;;;;;;4203434;28;20048;-89
2022/05/01 01:51:20;;;;;;;12.57;6.47;;;4.80;99.90;;;;;;4219548;28;20055;-89
2022/05/01 01:53:22;;;;;;;9.40;6.43;;;4.40;99.90;;;;;;4199796;28;20111;-89
2022/05/01 01:55:24;;;;;;;10.60;6.32;;;5.00;99.90;;;;;;4216644;28;20079;-91
2022/05/01 01:57:26;;;;;;;9.85;6.15;;;3.80;99.90;;;;;;4233176;28;20130;-90
2022/05/01 01:59:27;;;;;;;11.50;6.68;;;4.50;99.90;;;;;;4198781;28;20052;-89
2022/05/01 02:01:28;;;;;;;11.35;5.60;;;5.20;99.90;;;;;;4232631;28;20047;-89
2022/05/01 02:03:29;;;;;;;9.90;6.10;;;3.70;99.90;;;;;;4199997;28;20410;-91
2022/05/01 02:05:33;;;;;;;11.55;5.57;;;4.30;99.90;;;;;;4199587;28;20048;-89
2022/05/01 02:07:33;;;;;;;7.07;5.05;;;3.70;99.90;;;;;;4199030;28;20048;-90
2022/05/01 02:09:37;;;;;;;13.02;6.07;;;4.70;99.90;;;;;;4215849;28;20100;-89
2022/05/01 02:11:38;;;;;;;10.00;5.43;;;5.10;99.90;;;;;;4215443;28;20075;-90
2022/05/01 02:13:40;;;;;;;7.60;4.78;;;3.70;99.90;;;;;;4199274;28;20051;-90
2022/05/01 02:15:41;;;;;;;8.05;5.18;;;3.80;99.90;;;;;;4199187;28;20558;-90
2022/05/01 02:17:42;;;;;;;7.43;4.80;;;3.70;99.90;;;;;;4216557;28;20113;-90
2022/05/01 02:19:44;;;;;;;9.45;4.35;;;2.50;99.90;;;;;;4215182;28;20079;-90
2022/05/01 02:21:45;;;;;;;7.22;4.28;;;4.40;99.90;;;;;;4198952;28;20511;-90
2022/05/01 02:23:45;;;;;;;5.80;3.72;;;5.00;99.90;;;;;;4215508;28;20044;-89
2022/05/01 02:25:50;;;;;;;5.22;3.50;;;4.10;99.90;;;;;;4198851;28;20420;-90
2022/05/01 02:27:53;;;;;;;6.55;4.30;;;3.50;99.90;;;;;;4231400;28;20051;-89
2022/05/01 02:29:54;;;;;;;5.38;3.42;;;4.90;99.90;;;;;;4225010;28;20075;-89
2022/05/01 02:31:56;;;;;;;4.88;3.22;;;3.50;99.90;;;;;;4215001;28;20047;-90
2022/05/01 02:33:56;;;;;;;7.72;3.40;;;4.50;99.90;;;;;;4214607;28;20516;-90
2022/05/01 02:35:59;;;;;;;6.53;3.85;;;3.50;99.90;;;;;;4248694;27;20046;-90
2022/05/01 02:38:02;;;;;;;5.15;3.30;;;4.00;99.90;;;;;;4214801;28;20083;-90
2022/05/01 02:40:04;;;;;;;6.53;4.05;;;4.10;99.90;;;;;;4215412;28;20093;-91
2022/05/01 02:42:05;;;;;;;5.72;3.40;;;2.50;99.90;;;;;;4214277;28;20052;-90
2022/05/01 02:44:07;;;;;;;5.63;3.45;;;3.50;99.90;;;;;;4214679;28;20182;-88
2022/05/01 02:46:08;;;;;;;5.63;3.53;;;3.50;99.90;;;;;;4216148;28;20036;-88
2022/05/01 02:48:09;;;;;;;6.07;3.33;;;4.50;99.90;;;;;;4231821;28;20054;-89
2022/05/01 02:50:10;;;;;;;4.80;3.10;;;4.70;99.90;;;;;;4214851;28;20108;-89
2022/05/01 02:52:11;;;;;;;5.50;3.90;;;4.80;99.90;;;;;;4214497;28;20056;-89
2022/05/01 02:54:12;;;;;;;5.75;3.75;;;4.50;99.90;;;;;;4216398;28;20502;-90
2022/05/01 02:56:13;;;;;;;6.75;4.57;;;4.00;99.90;;;;;;4231293;28;20055;-90
2022/05/01 02:58:13;;;;;;;10.32;5.13;;;4.00;99.90;;;;;;4215452;28;20052;-89
2022/05/01 03:00:17;;;;;;;7.05;4.28;;;4.20;99.90;;;;;;4198834;28;20087;-89
2022/05/01 03:02:18;;;;;;;6.88;3.97;;;3.50;99.90;;;;;;4216212;28;20047;-89
2022/05/01 03:04:20;;;;;;;8.32;4.65;;;4.40;99.90;;;;;;4233022;28;20525;-90
2022/05/01 03:06:21;;;;;;;8.80;4.68;;;4.80;99.90;;;;;;4214845;28;20048;-89
2022/05/01 03:08:23;;;;;;;6.28;3.80;;;3.80;99.90;;;;;;4232423;28;20043;-89
2022/05/01 03:10:24;;;;;;;6.95;4.10;;;4.90;99.90;;;;;;4214825;28;20048;-89
2022/05/01 03:12:25;;;;;;;6.88;4.30;;;3.40;99.90;;;;;;4231699;28;20035;-89
2022/05/01 03:14:27;;;;;;;7.88;4.80;;;3.30;99.90;;;;;;4214753;28;20107;-89
2022/05/01 03:16:30;;;;;;;6.65;4.35;;;4.60;99.90;;;;;;4214302;28;20103;-89
2022/05/01 03:23:09;;;;;;;7.13;4.00;;;4.70;99.90;;;;;;4214238;28;20098;-89
2022/05/01 03:25:11;;;;;;;8.45;3.95;;;3.20;99.90;;;;;;4197485;28;20090;-89
2022/05/01 03:27:12;;;;;;;5.70;4.20;;;3.20;99.90;;;;;;4214246;28;20105;-89
2022/05/01 03:29:14;;;;;;;7.22;4.53;;;3.20;99.90;;;;;;4213437;28;20036;-90
2022/05/01 03:31:16;;;;;;;6.45;4.22;;;3.20;99.90;;;;;;4230727;28;20420;-90
2022/05/01 03:33:21;;;;;;;8.30;4.55;;;4.20;99.90;;;;;;4213834;28;20127;-89
2022/05/01 03:35:22;;;;;;;7.18;4.43;;;3.30;99.90;;;;;;4231124;28;20094;-89
2022/05/01 03:37:23;;;;;;;8.88;5.10;;;3.30;99.90;;;;;;4230591;28;20404;-89
2022/05/01 03:39:24;;;;;;;9.45;6.25;;;3.60;99.90;;;;;;4230916;28;20047;-89
2022/05/01 03:41:26;;;;;;;10.75;5.68;;;3.40;99.90;;;;;;4233164;28;20472;-89
2022/05/01 03:43:27;;;;;;;8.95;5.80;;;3.30;99.90;;;;;;4230969;28;20059;-89
2022/05/01 03:45:28;;;;;;;9.65;5.78;;;3.40;99.90;;;;;;4230641;28;20052;-89
2022/05/01 03:47:29;;;;;;;9.15;5.97;;;3.40;99.90;;;;;;4214366;28;20056;-90
2022/05/01 03:49:30;;;;;;;11.95;6.80;;;3.40;99.90;;;;;;4230833;28;20131;-90
2022/05/01 03:51:33;;;;;;;10.40;6.38;;;3.40;99.90;;;;;;4230708;28;20048;-90
2022/05/01 03:53:34;;;;;;;14.18;6.97;;;3.40;99.90;;;;;;4230836;28;20043;-90
2022/05/01 03:55:36;;;;;;;13.30;6.53;;;3.40;99.90;;;;;;4247531;28;20078;-90
2022/05/01 03:57:38;;;;;;;12.25;6.40;;;3.40;99.90;;;;;;4230689;28;20089;-91
2022/05/01 03:59:40;;;;;;;9.10;6.03;;;3.40;99.90;;;;;;4248435;28;20042;-90
2022/05/01 04:01:42;;;;;;;11.98;6.85;;;3.30;99.90;;;;;;4214389;28;20048;-90
2022/05/01 04:03:43;;;;;;;12.93;7.40;;;3.40;99.90;;;;;;4214795;28;20079;-90
2022/05/01 04:05:44;;;;;;;14.70;7.05;;;3.30;99.90;;;;;;4231509;28;20048;-90
2022/05/01 04:07:45;;;;;;;14.80;7.57;;;3.30;99.90;;;;;;4230624;28;20074;-90
2022/05/01 04:09:46;;;;;;;12.35;7.63;;;3.30;99.90;;;;;;4232475;28;20530;-89
2022/05/01 04:11:46;;;;;;;13.27;7.30;;;4.30;99.90;;;;;;4234177;28;20621;-89
2022/05/01 04:13:48;;;;;;;12.13;7.22;;;4.00;99.90;;;;;;4216511;28;20082;-89
2022/05/01 04:15:49;;;;;;;15.60;7.30;;;3.40;99.90;;;;;;4217011;28;20488;-90
2022/05/01 04:17:50;;;;;;;10.60;6.60;;;3.80;99.90;;;;;;4216575;28;20052;-89
2022/05/01 04:19:50;;;;;;;15.70;8.30;;;4.90;99.90;;;;;;4218257;28;20048;-89
2022/05/01 04:21:51;;;;;;;11.23;6.93;;;2.60;99.90;;;;;;4218787;28;20393;-89
2022/05/01 04:23:54;;;;;;;15.05;7.22;;;3.30;99.90;;;;;;4219002;28;20050;-89
2022/05/01 04:25:55;;;;;;;13.20;6.88;;;3.40;99.90;;;;;;4234524;28;20099;-90
2022/05/01 04:28:04;;;;;;;12.13;7.07;;;3.50;99.90;;;;;;4218068;28;20093;-89
2022/05/01 04:30:06;;;;;;;12.50;7.60;;;3.20;99.90;;;;;;4199739;28;20044;-89
2022/05/01 04:32:08;;;;;;;14.80;8.13;;;3.20;99.90;;;;;;4216923;28;20048;-89
2022/05/01 04:34:09;;;;;;;12.75;7.47;;;3.20;99.90;;;;;;4217590;28;20082;-89
2022/05/01 04:36:12;;;;;;;12.70;6.40;;;3.40;99.90;;;;;;4200698;28;20500;-89
2022/05/01 04:38:15;;;;;;;14.02;7.22;;;4.00;99.90;;;;;;4217580;28;20040;-89
2022/05/01 04:40:16;;;;;;;12.68;7.30;;;4.40;99.90;;;;;;4217300;28;20055;-90
2022/05/01 04:42:17;;;;;;;13.27;7.35;;;3.20;99.90;;;;;;4234307;28;20047;-90
2022/05/01 04:44:19;;;;;;;15.48;8.32;;;3.10;99.90;;;;;;4221128;28;20040;-92
2022/05/01 04:46:21;;;;;;;13.75;7.85;;;4.70;99.90;;;;;;4220935;28;20051;-90
2022/05/01 04:48:23;;;;;;;14.52;7.50;;;3.90;99.90;;;;;;4218059;28;20374;-90
2022/05/01 04:50:26;;;;;;;13.85;7.47;;;3.20;99.90;;;;;;4220123;28;20043;-90
2022/05/01 04:52:27;;;;;;;13.60;7.82;;;4.70;99.90;;;;;;4220013;28;20123;-91
2022/05/01 04:54:29;;;;;;;11.50;6.75;;;4.00;99.90;;;;;;4217974;28;20123;-90
2022/05/01 04:58:52;;;;;;;8.38;5.25;;;4.60;99.90;;;;;;4216289;28;20052;-90
2022/05/01 05:00:54;;;;;;;6.13;3.95;;;3.40;99.90;;;;;;4215976;28;20412;-89
2022/05/01 05:02:59;;;;;;;3.63;2.65;;;3.40;99.90;;;;;;4216356;28;20142;-90
2022/05/01 05:04:59;;;;;;;3.45;2.63;;;3.40;99.90;;;;;;4216842;28;20068;-89
2022/05/01 05:07:00;;;;;;;4.40;3.40;;;4.30;99.90;;;;;;4199669;28;20045;-90
2022/05/01 05:11:22;;;;;;;4.10;3.70;;;3.40;99.90;;;;;;4217110;28;20044;-90
2022/05/01 05:13:27;;;;;;;3.63;3.00;;;3.60;99.90;;;;;;4217936;28;20055;-90
2022/05/01 05:15:28;;;;;;;4.05;3.40;;;4.50;99.90;;;;;;4215744;28;20048;-90
2022/05/01 05:17:31;;;;;;;5.90;4.03;;;3.60;99.90;;;;;;4217733;28;20480;-89
2022/05/01 05:19:34;;;;;;;5.80;3.80;;;3.60;99.90;;;;;;4233052;28;20094;-90
2022/05/01 05:21:36;;;;;;;5.07;3.40;;;3.80;99.90;;;;;;4232943;28;20051;-90
2022/05/01 05:23:37;;;;;;;7.50;4.68;;;4.20;99.90;;;;;;4233649;28;20047;-90
2022/05/01 05:25:40;;;;;;;4.65;3.63;;;3.80;99.90;;;;;;4230801;28;20047;-90
2022/05/01 05:27:42;;;;;;;5.25;3.67;;;3.80;99.90;;;;;;4237827;27;20454;-90
2022/05/01 05:29:43;;;;;;;4.95;3.58;;;3.90;99.90;;;;;;4233358;28;20032;-90
2022/05/01 05:31:44;;;;;;;6.53;4.30;;;;;;;;;;4232530;28;20124;-90
2022/05/01 05:33:45;;;;;;;5.68;4.15;;;;;;;;;;4232494;28;20047;-90
2022/05/01 05:35:47;;;;;;;6.55;4.60;;;;;;;;;;4215285;28;20058;-90
2022/05/01 05:37:48;;;;;;;8.85;4.43;;;;;;;;;;4231779;28;20059;-90
2022/05/01 05:39:51;;;;;;;8.05;4.90;;;;;;;;;;4227849;28;20040;-90
2022/05/01 05:41:52;;;;;;;7.15;5.13;;;;;;;;;;4206285;28;20055;-89
2022/05/01 05:43:54;;;;;;;7.75;5.32;;;;;;;;;;4230546;28;20047;-90
2022/05/01 05:45:56;;;;;;;6.15;4.57;;;;;;;;;;4233956;28;20046;-89
2022/05/01 05:47:58;;;;;;;8.18;5.22;;;;;;;;;;4227711;28;20076;-90
2022/05/01 05:49:59;;;;;;;7.38;5.28;;;4.40;99.90;;;;;;4213095;28;20044;-90
2022/05/01 05:52:01;;;;;;;10.50;5.40;;;;;;;;;;4215954;28;20055;-90
2022/05/01 05:54:02;;;;;;;8.48;5.38;;;;;;;;;;4216136;28;20403;-90
2022/05/01 05:56:03;;;;;;;9.00;5.82;;;;;;;;;;4232881;28;20040;-90
2022/05/01 05:58:05;;;;;;;9.13;5.30;;;;;;;;;;4232510;27;20051;-90
2022/05/01 06:00:06;;;;;;;7.63;5.22;;;;;;;;;;4216291;28;20051;-90
2022/05/01 06:02:07;;;;;;;10.50;5.55;;;4.60;99.90;;;;;;4215231;28;20060;-90
2022/05/01 06:04:09;;;;;;;9.07;4.90;;;5.20;99.90;;;;;;4216524;28;20134;-91
2022/05/01 06:06:10;;;;;;;9.80;5.57;;;5.30;99.90;;;;;;4216083;28;20047;-90
2022/05/01 06:08:11;;;;;;;8.75;5.18;;;;;;;;;;4215483;28;20504;-90
2022/05/01 06:10:11;;;;;;;14.52;5.90;;;5.40;99.90;;;;;;4198883;28;20471;-90
2022/05/01 06:12:13;;;;;;;7.80;5.07;;;5.70;99.90;;;;;;4199238;28;20079;-90
2022/05/01 06:14:15;;;;;;;9.43;5.57;;;6.50;99.90;;;;;;4234287;28;20052;-90
2022/05/01 06:16:16;;;;;;;9.90;5.55;;;;;;;;;;4217709;28;20181;-91
2022/05/01 06:18:17;;;;;;;8.68;5.38;;;5.90;99.90;;;;;;4219701;28;20048;-90
2022/05/01 06:20:19;;;;;;;8.88;5.80;;;6.20;99.90;;;;;;4210214;28;20131;-90
2022/05/01 06:22:19;;;;;;;10.07;5.25;;;6.30;99.90;;;;;;4227887;28;20119;-90
2022/05/01 06:24:21;;;;;;;8.57;5.07;;;6.40;99.90;;;;;;4226806;28;20044;-90
2022/05/01 06:26:24;;;;;;;10.07;5.70;;;;;;;;;;4225326;28;20058;-90
2022/05/01 06:28:25;;;;;;;9.55;5.57;;;;;;;;;;4226832;28;20059;-89
2022/05/01 06:30:27;;;;;;;11.32;5.80;;;;;;;;;;4224554;28;20127;-91
2022/05/01 06:32:28;;;;;;;8.75;5.40;;;;;;;;;;4224756;28;20052;-91
2022/05/01 06:34:30;;;;;;;6.97;4.35;;;;;;;;;;4213804;28;20040;-90
2022/05/01 06:36:33;;;;;;;10.38;5.60;;;;;;;;;;4231582;28;20043;-90
2022/05/01 06:38:36;;;;;;;9.00;5.28;;;;;;;;;;4227653;28;20134;-90
2022/05/01 06:40:42;;;;;;;7.78;5.53;;;;;;;;;;4228055;28;20047;-89
2022/05/01 06:42:44;;;;;;;10.45;5.72;;;;;;;;;;4214698;28;20040;-88
2022/05/01 06:44:45;;;;;;;9.77;5.20;;;;;;;;;;4221525;28;20054;-88
2022/05/01 06:46:46;;;;;;;30.30;10.93;;;;;;;;;;4222177;28;20059;-88
2022/05/01 06:48:47;;;;;;;9.18;4.80;;;;;;;;;;4232388;28;20101;-88
2022/05/01 06:50:50;;;;;;;20.02;9.10;;;;;;;;;;4232183;28;20052;-87
2022/05/01 06:52:52;;;;;;;10.15;5.63;;;;;;;;;;4227883;28;20044;-89
2022/05/01 06:54:54;;;;;;;10.90;4.88;;;;;;;;;;4231975;28;20056;-89
2022/05/01 06:56:55;;;;;;;9.07;5.10;;;;;;;;;;4231538;28;20051;-89
2022/05/01 06:58:57;;;;;;;7.72;4.88;;;;;;;;;;4233040;28;20100;-90
2022/05/01 07:00:58;;;;;;;7.57;5.25;;;;;;;;;;4231779;28;20054;-89
2022/05/01 07:02:59;;;;;;;9.88;5.32;;;;;;;;;;4233048;28;20105;-89
2022/05/01 07:05:01;;;;;;;8.80;5.10;;;;;;;;;;4231636;28;20047;-89
2022/05/01 07:07:04;;;;;;;6.65;4.75;;;;;;;;;;4222567;28;20062;-89
2022/05/01 07:09:05;;;;;;;11.32;5.03;;;;;;;;;;4223374;28;20055;-89
2022/05/01 07:11:06;;;;;;;7.68;4.65;;;;;;;;;;4221990;28;20063;-89
2022/05/01 07:13:09;;;;;;;14.38;5.57;;;;;;;;;;4229483;28;20118;-89
2022/05/01 07:15:11;;;;;;;8.45;5.35;;;;;;;;;;4232364;28;20043;-89
2022/05/01 07:17:12;;;;;;;9.63;5.30;;;;;;;;;;4230882;28;20040;-89
2022/05/01 07:19:13;;;;;;;8.50;4.75;;;;;;;;;;4225466;28;20142;-89
2022/05/01 07:21:15;;;;;;;14.00;6.50;;;;;;;;;;4227797;28;20051;-88
2022/05/01 07:23:21;;;;;;;7.97;4.25;;;;;;;;;;4212366;28;20130;-88
2022/05/01 07:25:22;;;;;;;8.55;4.22;;;;;;;;;;4220615;28;20113;-90
2022/05/01 07:27:25;;;;;;;6.57;4.28;;;;;;;;;;4232542;28;20050;-89
2022/05/01 07:29:26;;;;;;;5.85;4.20;;;;;;;;;;4231934;28;20104;-89
2022/05/01 07:31:27;;;;;;;8.23;4.30;;;;;;;;;;4232251;28;20035;-89
2022/05/01 07:33:30;;;;;;;5.70;3.65;;;;;;;;;;4214462;28;20048;-89
2022/05/01 07:35:31;;;;;;;5.78;3.90;;;;;;;;;;4214052;28;20069;-89
2022/05/01 07:37:32;;;;;;;5.95;4.03;;;;;;;;;;4228530;28;20557;-89
2022/05/01 07:39:33;;;;;;;6.25;3.28;;;;;;;;;;4230962;28;20508;-89
2022/05/01 07:41:36;;;;;;;5.13;3.53;;;;;;;;;;4213752;28;20134;-89
2022/05/01 07:43:38;;;;;;;5.32;3.75;;;;;;;;;;4230772;28;20043;-90
2022/05/01 07:45:40;;;;;;;7.20;2.88;;;;;;;;;;4219334;28;20044;-90
2022/05/01 07:47:42;;;;;;;5.70;3.13;;;;;;;;;;4237267;28;20445;-90
2022/05/01 07:49:44;;;;;;;6.45;3.08;;;;;;;;;;4236514;28;20043;-92
2022/05/01 07:51:45;;;;;;;4.35;3.03;;;;;;;;;;4216222;28;20495;-86
2022/05/01 07:53:46;;;;;;;5.35;3.40;;;;;;;;;;4228313;28;20128;-86
2022/05/01 07:55:47;;;;;;;4.28;2.60;;;;;;;;;;4234913;28;20159;-85
2022/05/01 07:57:48;;;;;;;6.05;3.08;;;;;;;;;;4234250;28;20381;-85
2022/05/01 07:59:49;;;;;;;9.63;3.58;;;;;;;;;;4232648;28;20047;-85
2022/05/01 08:01:50;;;;;;;8.93;4.05;;;;;;;;;;4215122;28;20373;-86
2022/05/01 08:06:12;;;;;;;3.72;2.60;;;;;;;;;;4230833;28;20039;-86
2022/05/01 08:08:12;;;;;;;4.72;2.40;;;7.00;99.90;;;;;;4233661;28;20048;-86
2022/05/01 08:10:13;;;;;;;6.18;3.22;;;14.00;96.50;;;;;;4234204;28;20042;-87
2022/05/01 08:12:14;;;;;;;3.78;2.58;;;13.80;96.10;;;;;;4233995;28;20040;-87
2022/05/01 08:14:14;;;;;;;5.63;3.05;;;13.70;95.70;;;;;;4233802;28;20093;-85
2022/05/01 08:16:17;;;;;;;4.22;2.70;;;13.70;95.70;;;;;;4233206;28;20517;-86
2022/05/01 08:23:09;;;;;;;6.82;3.08;;;;;;;;;;4232284;28;20055;-86
2022/05/01 08:25:11;;;;;;;4.13;2.78;;;14.00;95.10;;;;;;4240976;27;20047;-88
2022/05/01 08:27:12;;;;;;;4.13;2.47;;;;;;;;;;4250345;27;20139;-86
2022/05/01 08:29:14;;;;;;;4.93;3.00;;;14.30;94.40;;;;;;4215960;28;20077;-86
2022/05/01 08:31:15;;;;;;;6.07;3.38;;;;;;;;;;4250570;27;20045;-86
2022/05/01 08:33:16;;;;;;;7.35;2.70;;;14.50;93.50;;;;;;4250628;27;20049;-86
2022/05/01 08:35:18;;;;;;;6.50;2.97;;;14.50;92.90;;;;;;4250898;27;20046;-88
2022/05/01 08:37:18;;;;;;;5.82;3.10;;;14.60;92.50;;;;;;4236192;27;20138;-86
2022/05/01 08:39:19;;;;;;;5.60;2.97;;;14.60;92.20;;;;;;4249247;27;20479;-88
2022/05/01 08:41:22;;;;;;;5.18;2.88;;;;;;;;;;4230986;28;20044;-87
2022/05/01 08:43:24;;;;;;;6.35;3.10;;;;;;;;;;4223080;28;20044;-88
2022/05/01 08:45:26;;;;;;;4.82;2.83;;;;;;;;;;4215327;28;20036;-88
2022/05/01 08:47:41;;;;;;;6.32;2.90;;;;;;;;;;4229478;28;20086;-89
2022/05/01 08:49:49;;;;;;;4.18;2.65;;;;;;;;;;4225642;28;20043;-93
2022/05/01 08:51:52;;;;;;;4.18;2.58;;;;;;;;;;4227437;28;20423;-88
2022/05/01 08:53:55;;;;;;;4.18;2.40;;;;;;;;;;4215050;28;20052;-88
2022/05/01 08:55:57;;;;;;;3.55;2.50;;;;;;;;;;4233064;28;20047;-88
2022/05/01 08:58:00;;;;;;;4.55;2.20;;;;;;;;;;4214601;28;20460;-87
2022/05/01 09:00:02;;;;;;;7.65;2.47;;;;;;;;;;4233300;28;20040;-88
2022/05/01 09:02:03;;;;;;;4.45;2.70;;;14.80;91.80;;;;;;4234266;28;20047;-88
2022/05/01 09:04:06;;;;;;;4.00;2.53;;;16.10;86.00;;;;;;4215644;28;20408;-88
2022/05/01 09:06:07;;;;;;;4.30;2.75;;;16.00;85.40;;;;;;4233918;28;20406;-88
2022/05/01 09:08:08;;;;;;;5.78;3.10;;;;;;;;;;4234225;28;20047;-89
2022/05/01 09:10:09;;;;;;;4.75;3.00;;;16.00;85.50;;;;;;4233844;28;20099;-89
2022/05/01 09:14:30;;;;;;;3.85;2.45;;;15.90;83.80;;;;;;4216222;28;20431;-88
2022/05/01 09:16:36;;;;;;;7.10;3.05;;;15.50;83.30;;;;;;4233755;28;20047;-89
2022/05/01 09:18:46;;;;;;;4.07;2.60;;;15.20;83.40;;;;;;4215406;28;20091;-89
2022/05/01 09:21:04;;;;;;;5.93;2.97;;;15.10;83.20;;;;;;4233351;28;20506;-89
2022/05/01 09:23:06;;;;;;;4.72;2.83;;;15.20;81.00;;;;;;4215258;28;20036;-88
2022/05/01 09:25:23;;;;;;;5.03;3.00;;;15.20;83.80;;;;;;4233706;28;20027;-89
2022/05/01 09:27:30;;;;;;;4.97;2.35;;;15.30;82.30;;;;;;4233575;28;20058;-89
2022/05/01 09:29:35;;;;;;;4.53;2.20;;;;;;;;;;4215504;28;20528;-88
2022/05/01 09:31:54;;;;;;;4.20;2.25;;;15.40;82.40;;;;;;4233484;28;20114;-89
2022/05/01 09:34:29;;;;;;;6.88;2.80;;;15.80;78.40;;;;;;4215505;28;20048;-88
2022/05/01 09:36:35;;;;;;;3.67;2.85;;;;;;;;;;4198523;28;20044;-89
2022/05/01 09:38:36;;;;;;;4.00;2.30;;;;;;;;;;4233483;28;20051;-88
2022/05/01 09:40:37;;;;;;;3.75;2.15;;;;;;;;;;4233256;28;20039;-89
2022/05/01 09:42:38;;;;;;;5.50;2.70;;;;;;;;;;4245856;27;20399;-89
2022/05/01 09:44:39;;;;;;;3.28;2.47;;;15.80;77.10;;;;;;4249337;27;20128;-88
2022/05/01 09:46:43;;;;;;;6.78;2.28;;;;;;;;;;4250352;27;20043;-88
2022/05/01 09:48:59;;;;;;;4.03;2.45;;;;;;;;;;4231791;28;20427;-88
2022/05/01 09:51:13;;;;;;;3.53;2.08;;;;;;;;;;4231878;28;20471;-88
2022/05/01 09:53:14;;;;;;;4.00;2.60;;;;;;;;;;4231866;28;20047;-88
2022/05/01 09:55:16;;;;;;;5.90;2.60;;;;;;;;;;4231627;28;20074;-86
2022/05/01 09:57:25;;;;;;;4.82;2.70;;;;;;;;;;4250283;27;20050;-86
2022/05/01 09:59:28;;;;;;;3.92;2.50;;;16.20;78.10;;;;;;4249719;27;20078;-86
2022/05/01 10:01:30;;;;;;;5.78;2.72;;;;;;;;;;4248434;27;20050;-88
2022/05/01 10:03:31;;;;;;;8.05;2.75;;;16.50;73.40;;;;;;4214961;28;20084;-87
2022/05/01 10:05:32;;;;;;;3.67;2.30;;;16.50;72.70;;;;;;4249868;27;20421;-87
2022/05/01 10:07:37;;;;;;;3.70;2.30;;;16.50;72.00;;;;;;4231510;28;20113;-88
2022/05/01 10:09:39;;;;;;;5.65;2.90;;;16.20;71.10;;;;;;4248327;27;20437;-88
2022/05/01 10:11:42;;;;;;;8.65;2.63;;;16.20;72.10;;;;;;4231485;28;20048;-87
2022/05/01 10:13:45;;;;;;;3.08;2.10;;;16.10;72.00;;;;;;4226066;28;20664;-87
2022/05/01 10:15:46;;;;;;;3.55;2.30;;;16.20;71.40;;;;;;4209770;28;20074;-87
2022/05/01 10:17:48;;;;;;;3.13;2.10;;;16.40;71.50;;;;;;4246718;27;20063;-88
2022/05/01 10:19:49;;;;;;;5.43;2.70;;;16.50;70.50;;;;;;4248942;27;20046;-88
2022/05/01 10:21:53;;;;;;;3.95;1.98;;;16.60;69.90;;;;;;4231050;28;20074;-87
2022/05/01 10:23:55;;;;;;;3.15;2.17;;;16.50;69.00;;;;;;4248593;27;20035;-87
2022/05/01 10:26:09;;;;;;;4.55;2.50;;;16.50;69.00;;;;;;4229583;28;20055;-87
2022/05/01 10:28:26;;;;;;;3.20;2.30;;;16.60;68.70;;;;;;4245870;27;20418;-88
2022/05/01 10:33:32;;;;;;;5.10;2.20;;;16.70;68.10;;;;;;4232538;28;20060;-88
2022/05/01 10:36:03;;;;;;;4.93;2.38;;;16.60;64.70;;;;;;4214239;28;20432;-87
2022/05/01 10:38:07;;;;;;;3.50;2.30;;;16.50;67.10;;;;;;4214342;28;20131;-90
2022/05/01 10:40:08;;;;;;;2.50;2.03;;;16.50;67.60;;;;;;4232196;28;20051;-90
2022/05/01 10:42:09;;;;;;;5.43;2.38;;;16.50;67.20;;;;;;4223349;28;20059;-90
2022/05/01 10:44:35;;;;;;;4.22;2.65;;;16.50;66.40;;;;;;4235323;28;20055;-90
2022/05/01 10:46:35;;;;;;;3.40;2.15;;;16.40;64.80;;;;;;4250062;27;20047;-90
2022/05/01 10:48:39;;;;;;;4.45;2.50;;;16.20;66.10;;;;;;4249797;27;20042;-90
2022/05/01 10:50:40;;;;;;;4.75;2.42;;;16.10;65.90;;;;;;4234972;28;20085;-90
2022/05/01 10:53:08;;;;;;;4.53;2.35;;;16.20;65.80;;;;;;4252206;27;20069;-89
2022/05/01 10:55:10;;;;;;;3.75;2.20;;;16.00;63.70;;;;;;4251002;27;20122;-90
2022/05/01 10:57:12;;;;;;;4.22;2.60;;;16.10;65.50;;;;;;4232207;28;20039;-90
2022/05/01 10:59:34;;;;;;;4.50;2.55;;;16.30;65.40;;;;;;4251118;27;20585;-90
2022/05/01 11:01:54;;;;;;;3.45;2.38;;;;;;;;;;4250869;27;20102;-91
2022/05/01 11:03:56;;;;;;;3.05;2.03;;;16.50;64.10;;;;;;4249122;27;20047;-90
2022/05/01 11:06:04;;;;;;;3.58;2.10;;;;;;;;;;4248644;27;20051;-90
2022/05/01 11:08:13;;;;;;;4.37;2.20;;;;;;;;;;4233345;28;20142;-90
2022/05/01 11:10:16;;;;;;;3.58;2.30;;;;;;;;;;4232926;28;20707;-90
2022/05/01 11:12:19;;;;;;;4.25;2.30;;;;;;;;;;4232276;28;20098;-91
2022/05/01 11:14:35;;;;;;;3.88;1.98;;;;;;;;;;4234387;28;20042;-90
2022/05/01 11:16:52;;;;;;;4.78;2.17;;;16.80;64.90;;;;;;4235598;28;20051;-90
2022/05/01 11:18:54;;;;;;;2.97;2.10;;;;;;;;;;4256146;27;20134;-91
2022/05/01 11:20:56;;;;;;;3.45;2.00;;;;;;;;;;4258603;27;20514;-91
2022/05/01 11:22:57;;;;;;;4.40;2.28;;;;;;;;;;4260176;27;20039;-90
2022/05/01 11:24:59;;;;;;;2.85;2.13;;;;;;;;;;4260751;28;20054;-90
2022/05/01 11:27:13;;;;;;;3.88;2.25;;;;;;;;;;4261397;28;20053;-90
2022/05/01 11:29:17;;;;;;;7.20;2.70;;;;;;;;;;4243033;28;20080;-90
2022/05/01 11:31:37;;;;;;;5.40;2.50;;;;;;;;;;4240688;28;20047;-90
2022/05/01 11:33:39;;;;;;;4.45;2.17;;;;;;;;;;4248417;28;20426;-91
2022/05/01 11:35:55;;;;;;;3.78;1.98;;;;;;;;;;4231403;28;20046;-91
2022/05/01 11:37:59;;;;;;;4.85;2.10;;;;;;;;;;4249501;28;20428;-90
2022/05/01 11:40:06;;;;;;;2.42;1.83;;;;;;;;;;4248456;28;20047;-90
2022/05/01 11:42:26;;;;;;;4.47;2.13;;;;;;;;;;4240282;28;20532;-91